Time;durP1;ratioP1;P1;durP2;ratioP2;P2;SDS_P1;SDS_P2;PMS_P1;PMS_P2;Temp;Humidity;BMP_temperature;BMP_pressure;BME280_temperature;BME280_humidity;BME280_pressure;Samples;Min_cycle;Max_cycle;Signal;HPM_P1;HPM_P2
2023/10/05 00:45:27;;;;;;;;;;;;;;;;;;;;;
2023/10/05 07:47:56;;;;;;;18.50;6.73;;;14.60;99.90;;;;;;6150306;23;20445;-87
2023/10/05 07:51:15;;;;;;;7.23;4.40;;;14.60;99.90;;;;;;6238524;22;20496;-87
2023/10/05 08:08:01;;;;;;;;;;;;;;;;;;;;;
2023/10/05 10:22:11;;;;;;;8.70;5.23;;;16.30;1.00;;;;;;6294794;22;21101;-87
2023/10/05 12:43:34;;;;;;;10.10;4.97;;;15.90;99.90;;;;;;6198333;22;20557;-88
2023/10/05 12:46:09;;;;;;;10.97;4.33;;;15.90;99.90;;;;;;6312092;22;20471;-88
2023/10/05 12:48:39;;;;;;;6.33;4.23;;;;;;;;;;6314633;22;20383;-88
2023/10/05 12:51:12;;;;;;;7.67;5.20;;;15.90;99.90;;;;;;6313361;22;20431;-88
2023/10/05 12:53:41;;;;;;;7.07;4.97;;;;;;;;;;6316366;22;20408;-87
2023/10/05 12:56:08;;;;;;;7.50;4.70;;;;;;;;;;6317101;22;20407;-88
2023/10/05 12:58:38;;;;;;;9.07;5.40;;;15.80;1.00;;;;;;6315242;22;20403;-88
2023/10/05 13:01:12;;;;;;;9.60;5.90;;;;;;;;;;6324876;22;20510;-87
2023/10/05 13:03:40;;;;;;;11.00;5.63;;;;;;;;;;6332533;22;20411;-87
2023/10/05 13:06:10;;;;;;;9.13;6.00;;;;;;;;;;6335909;22;20465;-87
2023/10/05 13:08:40;;;;;;;6.03;5.00;;;15.80;1.00;;;;;;6334692;22;20409;-87
2023/10/05 13:11:11;;;;;;;5.63;5.13;;;;;;;;;;6331487;22;20392;-88
2023/10/05 13:13:41;;;;;;;5.23;4.50;;;15.70;34.50;;;;;;6329496;22;20415;-88
2023/10/05 13:16:14;;;;;;;12.43;5.80;;;;;;;;;;6318607;22;20372;-87
2023/10/05 13:18:43;;;;;;;9.33;6.10;;;15.50;1.00;;;;;;6315903;22;20368;-88
2023/10/05 13:21:15;;;;;;;9.17;6.30;;;15.10;99.90;;;;;;6321423;22;20406;-87
2023/10/05 13:23:42;;;;;;;3.00;2.50;;;;;;;;;;6321541;22;20446;-87
2023/10/05 13:26:09;;;;;;;3.43;1.80;;;14.90;99.90;;;;;;6318086;22;20482;-86
2023/10/05 13:28:36;;;;;;;4.70;1.53;;;14.40;99.90;;;;;;6316845;22;20410;-88
2023/10/05 13:31:07;;;;;;;2.70;1.30;;;13.80;1.00;;;;;;6325337;22;20482;-87
2023/10/05 13:33:35;;;;;;;5.87;1.23;;;13.50;99.90;;;;;;6320434;22;20420;-87
2023/10/05 13:36:06;;;;;;;1.47;1.37;;;13.40;99.90;;;;;;6324437;22;20383;-87
2023/10/05 13:38:37;;;;;;;4.20;1.50;;;13.00;99.90;;;;;;6337800;22;20410;-85
2023/10/05 13:41:18;;;;;;;1.40;1.30;;;;;;;;;;6336039;22;20392;-86
2023/10/05 13:43:47;;;;;;;1.50;1.40;;;12.90;99.90;;;;;;6323722;22;20507;-86
2023/10/05 13:46:19;;;;;;;3.10;2.23;;;12.80;99.90;;;;;;6321176;22;20511;-87
2023/10/05 13:48:48;;;;;;;1.83;1.40;;;12.80;99.90;;;;;;6330769;22;20406;-87
2023/10/05 13:51:18;;;;;;;2.87;2.10;;;12.90;99.90;;;;;;6325232;22;20399;-87
2023/10/05 13:53:47;;;;;;;2.03;1.60;;;13.00;99.90;;;;;;6319113;22;20427;-86
2023/10/05 13:56:15;;;;;;;5.77;1.60;;;13.00;99.90;;;;;;6314504;22;20415;-87
2023/10/05 13:58:46;;;;;;;2.70;2.40;;;12.80;99.90;;;;;;6314723;22;20442;-87
2023/10/05 14:01:15;;;;;;;1.67;1.43;;;13.00;99.90;;;;;;6320537;22;20388;-87
2023/10/05 14:03:45;;;;;;;3.90;1.77;;;13.00;99.90;;;;;;6334945;22;20415;-85
2023/10/05 14:06:12;;;;;;;2.20;1.97;;;13.00;99.90;;;;;;6336861;22;20412;-87
2023/10/05 14:08:39;;;;;;;2.27;1.97;;;13.10;99.90;;;;;;6336824;22;20388;-86
2023/10/05 14:11:09;;;;;;;2.30;1.63;;;;;;;;;;6337124;22;20434;-86
2023/10/05 14:13:36;;;;;;;5.37;1.83;;;13.10;99.90;;;;;;6319983;22;20766;-87
2023/10/05 14:16:04;;;;;;;4.00;1.70;;;13.10;99.90;;;;;;6329392;22;20427;-86
2023/10/05 14:18:33;;;;;;;5.00;2.00;;;13.10;99.90;;;;;;6325068;22;20423;-86
2023/10/05 14:21:03;;;;;;;3.27;2.00;;;13.10;99.90;;;;;;6337484;22;20388;-85
2023/10/05 14:23:30;;;;;;;2.13;1.30;;;13.10;99.90;;;;;;6337452;22;20423;-85
2023/10/05 14:25:57;;;;;;;2.50;2.07;;;13.00;99.90;;;;;;6337237;22;20387;-85
2023/10/05 14:28:25;;;;;;;2.03;1.93;;;12.90;99.90;;;;;;6319238;22;20484;-86
2023/10/05 14:30:52;;;;;;;3.53;2.30;;;13.00;99.90;;;;;;6316709;22;20426;-86
2023/10/05 14:33:22;;;;;;;9.43;5.60;;;13.00;99.90;;;;;;6315720;22;20450;-86
2023/10/05 14:35:50;;;;;;;3.03;1.83;;;13.00;99.90;;;;;;6315627;22;20391;-86
2023/10/05 14:38:19;;;;;;;4.90;2.80;;;13.10;99.90;;;;;;6329053;22;20403;-86
2023/10/05 14:40:49;;;;;;;2.93;1.83;;;13.00;99.90;;;;;;6331963;22;20637;-87
2023/10/05 14:43:28;;;;;;;5.63;1.90;;;13.10;99.90;;;;;;6320176;22;20535;-87
2023/10/05 14:45:58;;;;;;;3.03;2.03;;;13.00;99.90;;;;;;6289434;22;20404;-86
2023/10/05 14:48:29;;;;;;;1.90;1.80;;;13.20;99.90;;;;;;6315580;22;20436;-87
2023/10/05 14:50:57;;;;;;;3.57;2.07;;;13.10;99.90;;;;;;6328716;22;20394;-87
2023/10/05 14:53:26;;;;;;;2.00;1.60;;;13.10;99.90;;;;;;6331679;22;20431;-86
2023/10/05 14:55:53;;;;;;;1.70;1.60;;;13.10;99.90;;;;;;6319226;22;20408;-86
2023/10/05 14:58:20;;;;;;;1.70;1.60;;;13.10;99.90;;;;;;6316845;22;20407;-86
2023/10/05 15:00:48;;;;;;;1.93;1.70;;;13.00;99.90;;;;;;6315634;22;20442;-86
2023/10/05 15:03:15;;;;;;;2.17;1.43;;;13.10;99.90;;;;;;6316478;22;20945;-87
2023/10/05 15:05:43;;;;;;;2.07;1.60;;;13.10;99.90;;;;;;6315357;22;20475;-87
2023/10/05 15:08:11;;;;;;;2.03;1.70;;;13.10;99.90;;;;;;6315084;22;20440;-87
2023/10/05 15:10:40;;;;;;;4.40;1.87;;;13.10;99.90;;;;;;6315712;22;20404;-87
2023/10/05 15:13:08;;;;;;;1.63;1.43;;;13.20;99.90;;;;;;6315893;22;20427;-88
2023/10/05 15:15:35;;;;;;;2.70;1.50;;;13.20;99.90;;;;;;6313984;22;20404;-87
2023/10/05 15:18:08;;;;;;;2.13;1.70;;;13.20;99.90;;;;;;6316405;22;20399;-87
2023/10/05 15:20:37;;;;;;;3.77;2.10;;;13.20;99.90;;;;;;6314018;22;20801;-86
2023/10/05 15:23:05;;;;;;;3.30;2.20;;;13.20;99.90;;;;;;6313411;22;20960;-87
2023/10/05 15:25:33;;;;;;;4.30;3.10;;;13.10;99.90;;;;;;6314965;22;20411;-86
2023/10/05 15:28:01;;;;;;;2.83;2.40;;;13.20;99.90;;;;;;6313679;22;20502;-86
2023/10/05 15:30:28;;;;;;;3.67;3.33;;;13.00;99.90;;;;;;6315908;22;20405;-86
2023/10/05 15:32:54;;;;;;;4.10;2.87;;;13.10;99.90;;;;;;6314382;22;20455;-86
2023/10/05 15:35:22;;;;;;;4.00;2.87;;;13.10;99.90;;;;;;6312518;22;20438;-87
2023/10/05 15:37:50;;;;;;;2.60;2.00;;;13.10;99.90;;;;;;6314495;22;20395;-87
2023/10/05 15:40:20;;;;;;;3.10;2.07;;;13.10;99.90;;;;;;6314380;22;20434;-86
2023/10/05 15:42:48;;;;;;;2.60;2.13;;;13.10;99.90;;;;;;6313597;22;20435;-86
2023/10/05 15:45:20;;;;;;;1.70;1.50;;;12.60;99.90;;;;;;6315967;22;20495;-86
2023/10/05 15:47:48;;;;;;;1.97;1.67;;;13.00;99.90;;;;;;6320892;22;20517;-87
2023/10/05 15:50:18;;;;;;;2.70;1.50;;;13.10;99.90;;;;;;6334613;22;20427;-86
2023/10/05 15:52:48;;;;;;;6.53;2.03;;;13.00;99.90;;;;;;6334793;22;20408;-85
2023/10/05 15:55:16;;;;;;;3.93;2.40;;;13.00;99.90;;;;;;6335181;22;20395;-85
2023/10/05 15:57:47;;;;;;;2.57;2.00;;;13.00;99.90;;;;;;6332908;22;20403;-85
2023/10/05 16:00:17;;;;;;;3.30;1.97;;;13.00;99.90;;;;;;6322100;22;20470;-86
2023/10/05 16:02:46;;;;;;;2.23;2.00;;;13.00;99.90;;;;;;6317779;22;20422;-86
2023/10/05 16:05:13;;;;;;;2.33;1.83;;;;;;;;;;6317487;22;20404;-86
2023/10/05 16:07:42;;;;;;;3.07;2.67;;;12.90;99.90;;;;;;6327547;22;20434;-86
2023/10/05 16:10:10;;;;;;;2.97;2.07;;;13.00;99.90;;;;;;6330689;22;20408;-86
2023/10/05 16:12:37;;;;;;;2.07;1.07;;;12.90;99.90;;;;;;6335157;22;20415;-86
2023/10/05 16:15:07;;;;;;;1.97;1.73;;;12.80;99.90;;;;;;6321315;22;20471;-86
2023/10/05 16:17:36;;;;;;;3.53;2.13;;;12.80;99.90;;;;;;6320116;22;20406;-87
2023/10/05 16:20:05;;;;;;;3.10;2.27;;;12.70;99.90;;;;;;6316309;22;20864;-86
2023/10/05 16:22:33;;;;;;;6.60;2.37;;;12.70;99.90;;;;;;6315630;22;20506;-86
2023/10/05 16:25:46;;;;;;;3.10;2.20;;;12.70;99.90;;;;;;6318079;22;20475;-87
2023/10/05 16:28:17;;;;;;;2.90;2.23;;;;;;;;;;6320129;22;20427;-86
2023/10/05 16:30:44;;;;;;;4.33;2.47;;;;;;;;;;6323844;22;20368;-86
2023/10/05 16:33:23;;;;;;;5.07;3.50;;;12.80;99.90;;;;;;6317645;22;20432;-86
2023/10/05 16:35:50;;;;;;;8.97;2.33;;;;;;;;;;6316694;22;20368;-86
2023/10/05 16:38:18;;;;;;;4.50;2.13;;;;;;;;;;6318750;22;20434;-87
2023/10/05 16:40:45;;;;;;;4.20;2.43;;;;;;;;;;6320002;22;20483;-87
2023/10/05 16:43:13;;;;;;;3.43;2.20;;;;;;;;;;6317691;22;20446;-86
2023/10/05 16:45:40;;;;;;;5.93;3.20;;;;;;;;;;6317005;22;20406;-87
2023/10/05 16:48:07;;;;;;;3.67;2.17;;;;;;;;;;6332975;22;20510;-85
2023/10/05 16:50:36;;;;;;;4.17;2.37;;;12.30;99.90;;;;;;6336358;22;20399;-86
2023/10/05 16:53:05;;;;;;;5.43;2.63;;;12.80;99.90;;;;;;6322946;22;20435;-88
2023/10/05 16:55:38;;;;;;;2.30;1.80;;;12.40;99.90;;;;;;6319216;22;20439;-87
2023/10/05 16:58:06;;;;;;;6.00;2.70;;;;;;;;;;6331956;22;20438;-87
2023/10/05 17:00:33;;;;;;;5.27;3.20;;;12.40;99.90;;;;;;6321865;22;20490;-86
2023/10/05 17:03:00;;;;;;;2.60;1.80;;;12.40;99.90;;;;;;6332148;22;20419;-86
2023/10/05 17:05:28;;;;;;;5.53;3.17;;;12.30;99.90;;;;;;6327874;22;20403;-86
2023/10/05 17:07:59;;;;;;;6.23;2.77;;;12.30;99.90;;;;;;6324483;22;20431;-86
2023/10/05 17:10:27;;;;;;;9.50;4.80;;;12.30;99.90;;;;;;6322686;22;20407;-87
2023/10/05 17:12:54;;;;;;;3.20;2.90;;;12.30;99.90;;;;;;6318893;22;20435;-87
2023/10/05 17:15:22;;;;;;;17.67;9.77;;;12.30;99.90;;;;;;6315631;22;20406;-87
2023/10/05 17:17:50;;;;;;;6.33;3.17;;;12.30;99.90;;;;;;6318245;22;20483;-87
2023/10/05 17:20:17;;;;;;;7.67;2.97;;;12.30;99.90;;;;;;6315723;22;20523;-87
2023/10/05 17:22:44;;;;;;;5.10;2.80;;;12.30;99.90;;;;;;6315559;22;20502;-86
2023/10/05 17:25:12;;;;;;;4.43;2.80;;;12.30;99.90;;;;;;6318767;22;20400;-87
2023/10/05 17:27:41;;;;;;;4.53;2.37;;;12.30;99.90;;;;;;6314719;22;20446;-87
2023/10/05 17:30:09;;;;;;;6.20;2.90;;;12.00;99.90;;;;;;6317885;22;20923;-86
2023/10/05 17:32:37;;;;;;;2.30;2.10;;;12.20;99.90;;;;;;6315487;22;20455;-85
2023/10/05 17:35:07;;;;;;;2.60;2.40;;;12.20;99.90;;;;;;6316491;22;20461;-86
2023/10/05 17:37:33;;;;;;;4.30;2.47;;;12.10;99.90;;;;;;6329016;22;20388;-86
2023/10/05 17:40:04;;;;;;;5.20;3.10;;;12.10;99.90;;;;;;6337580;22;20418;-86
2023/10/05 17:42:57;;;;;;;6.70;2.60;;;12.10;99.90;;;;;;6336175;22;20463;-88
2023/10/05 17:45:25;;;;;;;8.63;3.77;;;;;;;;;;6335116;22;20467;-86
2023/10/05 17:47:52;;;;;;;5.53;3.47;;;;;;;;;;6327762;22;20467;-86
2023/10/05 17:50:19;;;;;;;7.10;3.40;;;;;;;;;;6327863;22;20411;-87
2023/10/05 17:52:48;;;;;;;5.20;3.30;;;;;;;;;;6319722;22;20491;-86
2023/10/05 17:55:16;;;;;;;5.80;3.97;;;12.10;99.90;;;;;;6316403;22;20412;-86
2023/10/05 17:57:44;;;;;;;8.67;4.40;;;12.10;99.90;;;;;;6316753;22;20406;-86
2023/10/05 18:00:15;;;;;;;6.07;3.90;;;12.10;99.90;;;;;;6315061;22;20406;-87
2023/10/05 18:02:42;;;;;;;8.50;6.43;;;12.20;99.90;;;;;;6314273;22;20430;-86
2023/10/05 18:05:12;;;;;;;9.10;5.87;;;12.10;99.90;;;;;;6316625;22;20414;-87
2023/10/05 18:07:43;;;;;;;11.83;6.63;;;12.30;99.90;;;;;;6322548;22;20431;-87
2023/10/05 18:10:11;;;;;;;7.70;5.50;;;12.60;99.90;;;;;;6329515;22;20927;-86
2023/10/05 18:12:38;;;;;;;7.90;4.93;;;12.20;99.90;;;;;;6330504;22;21023;-85
2023/10/05 18:15:08;;;;;;;7.70;5.13;;;12.50;99.90;;;;;;6336878;22;20406;-85
2023/10/05 18:17:35;;;;;;;9.27;6.23;;;12.30;99.90;;;;;;6334070;22;20414;-87
2023/10/05 18:20:03;;;;;;;8.00;6.05;;;12.50;99.90;;;;;;6328111;22;20743;-87
2023/10/05 18:22:30;;;;;;;14.97;7.17;;;12.20;99.90;;;;;;6331416;22;20193;-86
2023/10/05 18:25:00;;;;;;;13.10;7.20;;;12.30;99.90;;;;;;6328933;22;20491;-86
2023/10/05 18:27:35;;;;;;;7.43;6.77;;;12.20;99.90;;;;;;6327633;22;20426;-87
2023/10/05 18:30:23;;;;;;;7.97;6.23;;;12.10;99.90;;;;;;6329350;22;20367;-86
2023/10/05 18:35:34;;;;;;;9.17;7.90;;;;;;;;;;6334663;22;20490;-85
2023/10/05 18:38:05;;;;;;;13.70;6.57;;;;;;;;;;6335800;22;20412;-87
2023/10/05 18:40:33;;;;;;;16.13;10.60;;;;;;;;;;6336788;22;20372;-86
2023/10/05 19:23:26;;;;;;;39.93;30.07;;;12.10;99.90;;;;;;6188874;23;20459;-87
2023/10/05 19:26:53;;;;;;;14.60;7.20;;;12.20;99.90;;;;;;6159470;23;20733;-86
2023/10/05 19:30:13;;;;;;;10.70;7.93;;;12.20;99.90;;;;;;6098769;23;20453;-87
2023/10/05 20:18:31;;;;;;;10.50;7.00;;;12.10;99.90;;;;;;6318377;22;20453;-87
2023/10/05 22:01:41;;;;;;;19.70;13.53;;;12.10;99.90;;;;;;6169578;23;20396;-88
2023/10/05 23:28:14;;;;;;;15.37;11.47;;;13.10;99.90;;;;;;6315215;22;20443;-86
2023/10/05 23:30:45;;;;;;;13.77;12.33;;;12.40;99.90;;;;;;6310895;22;20905;-86
2023/10/05 23:33:12;;;;;;;12.90;10.53;;;12.30;99.90;;;;;;6310539;22;20380;-86
2023/10/05 23:35:39;;;;;;;13.00;10.80;;;12.50;99.90;;;;;;6309947;22;20483;-86
2023/10/05 23:38:12;;;;;;;13.43;9.93;;;12.50;99.90;;;;;;6310648;22;20802;-86
2023/10/05 23:40:40;;;;;;;13.30;11.30;;;12.50;99.90;;;;;;6310011;22;20463;-86
2023/10/05 23:43:06;;;;;;;14.80;11.30;;;12.50;99.90;;;;;;6310263;22;20399;-86
2023/10/05 23:45:34;;;;;;;14.90;10.90;;;12.30;99.90;;;;;;6310002;22;20422;-87
2023/10/05 23:48:07;;;;;;;16.20;10.60;;;12.40;99.90;;;;;;6309948;22;20431;-86
2023/10/05 23:50:36;;;;;;;21.57;11.10;;;12.30;99.90;;;;;;6310674;22;20388;-87
2023/10/05 23:53:05;;;;;;;11.63;10.43;;;12.40;99.90;;;;;;6310118;22;20490;-86
2023/10/05 23:55:37;;;;;;;11.80;10.40;;;12.30;99.90;;;;;;6310950;22;20404;-86
2023/10/05 23:58:04;;;;;;;14.40;10.63;;;12.40;99.90;;;;;;6310724;22;20423;-87
